createdAt,value
2022-08-02T00:01:09.112Z,10.40
2022-08-02T00:03:38.359Z,11.10
2022-08-02T00:06:07.995Z,9.38
2022-08-02T00:08:37.174Z,10.30
2022-08-02T00:11:06.501Z,8.38
2022-08-02T00:13:35.680Z,5.82
2022-08-02T00:16:07.311Z,5.60
2022-08-02T00:18:36.568Z,8.23
2022-08-02T00:21:05.978Z,9.88
2022-08-02T00:24:04.950Z,9.02
2022-08-02T00:26:25.354Z,8.32
2022-08-02T00:28:54.585Z,7.65
2022-08-02T00:31:26.105Z,8.50
2022-08-02T00:34:05.650Z,10.60
2022-08-02T00:36:44.858Z,13.55
2022-08-02T00:39:34.798Z,7.60
2022-08-02T00:42:03.325Z,6.82
2022-08-02T00:44:32.708Z,6.90
2022-08-02T00:47:04.064Z,9.75
2022-08-02T00:49:33.853Z,7.43
2022-08-02T00:52:03.224Z,6.63
2022-08-02T00:54:32.572Z,8.82
2022-08-02T00:57:02.466Z,8.43
2022-08-02T00:59:31.774Z,7.88
2022-08-02T01:02:00.955Z,9.50
2022-08-02T01:04:32.515Z,6.28
2022-08-02T01:07:03.617Z,7.40
2022-08-02T01:09:43.087Z,8.48
2022-08-02T01:12:13.681Z,7.35
2022-08-02T01:14:45.265Z,8.55
2022-08-02T01:17:20.507Z,7.60
2022-08-02T01:19:59.909Z,6.45
2022-08-02T01:23:05.053Z,7.10
2022-08-02T01:25:55.446Z,7.57
2022-08-02T01:28:36.739Z,8.40
2022-08-02T01:31:15.964Z,10.70
2022-08-02T01:33:50.170Z,10.73
2022-08-02T01:36:22.917Z,11.00
2022-08-02T01:38:56.234Z,12.35
2022-08-02T01:41:29.238Z,9.82
2022-08-02T01:44:02.182Z,8.32
2022-08-02T01:46:34.728Z,8.40
2022-08-02T01:49:09.463Z,9.50
2022-08-02T01:51:54.800Z,12.90
2022-08-02T01:54:26.909Z,10.32
2022-08-02T01:56:58.447Z,9.98
2022-08-02T01:59:31.818Z,8.60
2022-08-02T02:02:03.395Z,8.95
2022-08-02T02:04:34.069Z,5.88
2022-08-02T02:07:05.367Z,8.88
2022-08-02T02:09:47.719Z,13.73
2022-08-02T02:12:21.342Z,8.73
2022-08-02T02:14:53.944Z,10.98
2022-08-02T02:18:10.587Z,7.80
2022-08-02T02:20:17.134Z,12.32
2022-08-02T02:22:48.473Z,7.47
2022-08-02T02:25:35.569Z,10.60
2022-08-02T02:28:11.481Z,9.13
2022-08-02T02:30:48.376Z,10.00
2022-08-02T02:33:20.479Z,10.43
2022-08-02T02:35:53.378Z,9.40
2022-08-02T02:38:24.296Z,7.75
2022-08-02T02:40:54.992Z,8.43
2022-08-02T02:43:26.694Z,6.57
2022-08-02T02:48:29.627Z,10.55
2022-08-02T02:51:00.661Z,10.40
2022-08-02T02:54:30.195Z,9.07
2022-08-02T02:56:21.652Z,9.52
2022-08-02T02:58:52.385Z,10.35
2022-08-02T03:01:35.830Z,11.37
2022-08-02T03:04:20.740Z,10.38
2022-08-02T03:06:51.555Z,6.82
2022-08-02T03:09:21.001Z,7.55
2022-08-02T03:11:51.295Z,12.77
2022-08-02T03:14:20.673Z,13.07
2022-08-02T03:16:53.644Z,11.50
2022-08-02T03:19:23.969Z,11.77
2022-08-02T03:22:02.680Z,8.82
2022-08-02T03:24:32.662Z,9.23
2022-08-02T03:27:01.870Z,10.07
2022-08-02T03:29:34.425Z,9.48
2022-08-02T03:32:07.071Z,9.02
2022-08-02T03:34:36.326Z,9.60
2022-08-02T03:37:06.009Z,8.65
2022-08-02T03:39:37.047Z,9.40
2022-08-02T03:42:15.386Z,6.72
2022-08-02T03:44:45.441Z,9.23
2022-08-02T03:47:17.461Z,6.30
2022-08-02T03:49:47.286Z,10.52
2022-08-02T03:52:17.371Z,8.38
2022-08-02T03:54:46.918Z,8.88
2022-08-02T03:57:16.385Z,6.13
2022-08-02T03:59:47.621Z,7.93
2022-08-02T04:02:19.965Z,7.97
2022-08-02T04:04:49.266Z,7.93
2022-08-02T04:08:01.134Z,7.78
2022-08-02T04:10:08.321Z,8.27
2022-08-02T04:12:37.584Z,7.32
2022-08-02T04:15:09.556Z,8.73
2022-08-02T04:17:45.074Z,6.28
2022-08-02T04:20:19.983Z,7.40
2022-08-02T04:22:54.713Z,7.90
2022-08-02T04:25:35.429Z,7.22
2022-08-02T04:28:17.260Z,7.93
2022-08-02T04:30:49.092Z,9.15
2022-08-02T04:33:20.894Z,6.25
2022-08-02T04:35:50.215Z,7.43
2022-08-02T04:38:21.106Z,7.20
2022-08-02T04:40:55.254Z,11.63
2022-08-02T04:43:25.613Z,7.63
2022-08-02T04:45:56.505Z,8.88
2022-08-02T04:48:27.690Z,10.98
2022-08-02T04:50:58.150Z,8.70
2022-08-02T04:53:27.395Z,7.68
2022-08-02T04:55:57.361Z,10.90
2022-08-02T04:58:42.004Z,8.07
2022-08-02T05:01:11.292Z,5.95
2022-08-02T05:03:42.467Z,5.85
2022-08-02T05:06:18.648Z,9.25
2022-08-02T05:08:52.823Z,8.18
2022-08-02T05:11:34.161Z,11.73
2022-08-02T05:14:04.386Z,8.40
2022-08-02T05:16:33.539Z,13.40
2022-08-02T05:19:05.036Z,6.53
2022-08-02T05:21:34.428Z,11.35
2022-08-02T05:24:03.631Z,9.50
2022-08-02T05:26:33.053Z,8.85
2022-08-02T05:29:02.877Z,12.50
2022-08-02T05:31:32.421Z,10.93
2022-08-02T05:34:05.799Z,8.13
2022-08-02T05:36:37.940Z,7.53
2022-08-02T05:39:18.583Z,8.27
2022-08-02T05:41:48.429Z,10.75
2022-08-02T05:44:17.778Z,12.00
2022-08-02T05:46:47.142Z,9.98
2022-08-02T05:49:19.037Z,10.27
2022-08-02T05:51:58.866Z,8.55
2022-08-02T05:54:39.421Z,11.15
2022-08-02T05:57:16.259Z,9.30
2022-08-02T05:59:58.312Z,15.20
2022-08-02T06:02:32.056Z,10.13
2022-08-02T06:05:07.586Z,8.50
2022-08-02T06:07:39.003Z,11.75
2022-08-02T06:10:12.893Z,11.63
2022-08-02T06:12:48.395Z,7.80
2022-08-02T06:15:19.562Z,14.57
2022-08-02T06:17:49.364Z,8.55
2022-08-02T06:20:22.595Z,9.30
2022-08-02T06:22:53.131Z,9.50
2022-08-02T06:25:49.714Z,9.03
2022-08-02T06:28:16.027Z,10.27
2022-08-02T06:30:46.483Z,9.57
2022-08-02T06:33:15.840Z,10.68
2022-08-02T06:35:55.634Z,10.73
2022-08-02T06:38:27.297Z,9.98
2022-08-02T06:43:36.718Z,7.97
2022-08-02T06:46:57.069Z,7.40
2022-08-02T06:48:59.637Z,10.65
2022-08-02T06:51:30.882Z,7.35
2022-08-02T06:54:00.134Z,5.45
2022-08-02T06:56:29.611Z,9.20
2022-08-02T06:59:02.133Z,6.90
2022-08-02T07:01:38.971Z,5.88
2022-08-02T07:04:08.825Z,6.05
2022-08-02T07:06:39.964Z,7.22
2022-08-02T07:09:24.562Z,6.03
2022-08-02T07:11:53.818Z,8.10
2022-08-02T07:14:23.044Z,7.30
2022-08-02T07:16:55.235Z,7.40
2022-08-02T07:19:29.866Z,11.90
2022-08-02T07:22:09.192Z,7.90
2022-08-02T07:27:12.081Z,10.70
2022-08-02T07:29:45.901Z,9.07
2022-08-02T07:32:17.084Z,11.35
2022-08-02T07:34:51.415Z,7.85
2022-08-02T07:37:53.690Z,9.00
2022-08-02T07:40:20.484Z,9.98
2022-08-02T07:42:51.711Z,8.45
2022-08-02T07:45:22.249Z,6.88
2022-08-02T07:47:52.450Z,5.13
2022-08-02T07:50:23.425Z,5.90
2022-08-02T07:52:57.737Z,5.15
2022-08-02T07:55:39.418Z,4.47
2022-08-02T07:58:11.504Z,3.83
2022-08-02T08:00:44.100Z,4.20
2022-08-02T08:03:14.072Z,4.60
2022-08-02T08:05:43.461Z,4.30
2022-08-02T08:08:17.733Z,5.57
2022-08-02T08:10:47.367Z,5.43
2022-08-02T08:13:16.695Z,5.82
2022-08-02T08:15:52.020Z,3.95
2022-08-02T08:18:22.212Z,5.50
2022-08-02T08:20:52.208Z,8.52
2022-08-02T08:23:23.627Z,3.90
2022-08-02T08:28:21.889Z,2.58
2022-08-02T08:30:51.866Z,7.50
2022-08-02T08:33:21.031Z,4.03
2022-08-02T08:35:50.658Z,6.18
2022-08-02T08:38:20.722Z,4.70
2022-08-02T08:40:53.233Z,7.47
2022-08-02T08:43:22.733Z,3.30
2022-08-02T08:45:55.775Z,5.63
2022-08-02T08:48:31.550Z,3.13
2022-08-02T08:51:06.908Z,2.50
2022-08-02T08:53:42.035Z,5.95
2022-08-02T08:56:16.579Z,4.38
2022-08-02T08:58:48.028Z,4.85
2022-08-02T09:01:21.259Z,6.90
2022-08-02T09:03:50.538Z,4.30
2022-08-02T09:06:20.103Z,3.72
2022-08-02T09:08:49.335Z,4.63
2022-08-02T09:11:24.651Z,3.38
2022-08-02T09:13:56.604Z,4.55
2022-08-02T09:16:33.914Z,2.65
2022-08-02T09:19:17.945Z,4.35
2022-08-02T09:21:47.508Z,2.42
2022-08-02T09:24:22.977Z,5.20
2022-08-02T09:26:54.514Z,3.45
2022-08-02T09:32:04.222Z,5.00
2022-08-02T09:34:46.358Z,7.82
2022-08-02T09:37:29.899Z,6.65
2022-08-02T09:40:02.868Z,5.47
2022-08-02T09:42:35.409Z,4.95
2022-08-02T09:45:05.626Z,4.93
2022-08-02T09:47:37.533Z,4.68
2022-08-02T09:50:09.977Z,4.82
2022-08-02T09:52:45.374Z,3.60
2022-08-02T09:55:15.716Z,3.58
2022-08-02T09:57:51.177Z,2.75
2022-08-02T10:00:37.104Z,4.82
2022-08-02T10:03:19.339Z,3.25
2022-08-02T10:05:56.327Z,3.45
2022-08-02T10:08:33.152Z,3.10
2022-08-02T10:11:03.669Z,3.50
2022-08-02T10:13:37.543Z,5.25
2022-08-02T10:16:08.119Z,6.45
2022-08-02T10:18:39.793Z,3.03
2022-08-02T10:21:14.309Z,2.88
2022-08-02T10:23:46.332Z,6.68
2022-08-02T10:26:18.877Z,2.55
2022-08-02T10:28:51.912Z,4.50
2022-08-02T10:31:25.981Z,4.25
2022-08-02T10:34:00.359Z,6.88
2022-08-02T10:36:33.492Z,3.63
2022-08-02T10:39:04.729Z,3.58
2022-08-02T10:41:55.073Z,3.78
2022-08-02T10:44:31.609Z,4.15
2022-08-02T10:47:22.823Z,2.47
2022-08-02T10:49:55.139Z,3.63
2022-08-02T10:52:25.460Z,8.77
2022-08-02T10:55:00.229Z,1.83
2022-08-02T10:57:31.344Z,5.22
2022-08-02T11:00:12.007Z,3.80
2022-08-02T11:02:53.589Z,2.95
2022-08-02T11:05:42.563Z,3.47
2022-08-02T11:08:22.836Z,4.13
2022-08-02T11:10:52.276Z,4.82
2022-08-02T11:13:22.678Z,4.03
2022-08-02T11:15:56.652Z,5.15
2022-08-02T11:19:00.790Z,2.90
2022-08-02T11:21:31.465Z,2.30
2022-08-02T11:24:28.987Z,4.47
2022-08-02T11:26:59.693Z,8.48
2022-08-02T11:29:40.308Z,4.15
2022-08-02T11:32:18.598Z,2.20
2022-08-02T11:34:49.824Z,6.75
2022-08-02T11:37:30.184Z,3.05
2022-08-02T11:39:59.602Z,2.42
2022-08-02T11:42:34.587Z,3.22
2022-08-02T11:45:04.331Z,3.25
2022-08-02T11:47:37.693Z,2.50
2022-08-02T11:50:12.534Z,3.60
2022-08-02T11:52:42.639Z,6.35
2022-08-02T11:55:13.640Z,2.00
2022-08-02T11:58:04.161Z,2.75
2022-08-02T12:00:33.817Z,4.13
2022-08-02T12:03:04.965Z,2.83
2022-08-02T12:08:25.530Z,4.70
2022-08-02T12:10:54.873Z,5.70
2022-08-02T12:13:24.013Z,3.35
2022-08-02T12:15:53.215Z,4.82
2022-08-02T12:18:37.954Z,4.82
2022-08-02T12:21:23.407Z,3.35
2022-08-02T12:24:00.405Z,2.40
2022-08-02T12:26:31.553Z,3.83
2022-08-02T12:29:01.612Z,3.13
2022-08-02T12:31:57.171Z,7.18
2022-08-02T12:34:31.852Z,3.33
2022-08-02T12:37:03.787Z,4.00
2022-08-02T12:39:41.820Z,7.80
2022-08-02T12:42:12.487Z,3.33
2022-08-02T12:44:53.112Z,3.08
2022-08-02T12:47:23.136Z,3.50
2022-08-02T12:57:53.757Z,4.88
2022-08-02T13:00:27.711Z,3.75
2022-08-02T13:02:57.294Z,5.45
2022-08-02T13:05:28.656Z,16.40
2022-08-02T13:08:18.304Z,5.85
2022-08-02T13:10:47.548Z,3.58
2022-08-02T13:13:21.296Z,2.67
2022-08-02T13:15:51.619Z,3.10
2022-08-02T13:18:20.906Z,2.78
2022-08-02T13:20:50.203Z,3.83
2022-08-02T13:23:21.318Z,4.65
2022-08-02T13:25:52.740Z,2.92
2022-08-02T13:28:24.494Z,2.97
2022-08-02T13:30:53.757Z,7.15
2022-08-02T13:33:24.900Z,5.13
2022-08-02T13:35:54.135Z,5.00
2022-08-02T13:38:25.012Z,2.40
2022-08-02T13:41:07.387Z,4.40
2022-08-02T13:43:52.586Z,3.25
2022-08-02T13:46:29.465Z,3.85
2022-08-02T13:48:59.201Z,4.68
2022-08-02T13:51:28.474Z,2.55
2022-08-02T13:53:58.177Z,4.47
2022-08-02T13:56:35.368Z,5.35
2022-08-02T13:59:55.363Z,3.53
2022-08-02T14:01:58.084Z,5.00
2022-08-02T14:04:29.379Z,6.70
2022-08-02T14:09:29.592Z,3.97
2022-08-02T14:12:03.268Z,4.88
2022-08-02T14:14:34.651Z,4.43
2022-08-02T14:17:06.355Z,5.88
2022-08-02T14:19:35.638Z,3.22
2022-08-02T14:22:10.919Z,3.10
2022-08-02T14:24:42.103Z,3.75
2022-08-02T14:27:11.543Z,7.43
2022-08-02T14:29:42.844Z,5.97
2022-08-02T14:32:12.948Z,2.30
2022-08-02T14:34:43.836Z,3.95
2022-08-02T14:37:13.056Z,3.83
2022-08-02T14:42:30.394Z,2.60
2022-08-02T14:45:02.276Z,4.22
2022-08-02T14:47:33.804Z,4.93
2022-08-02T14:50:03.159Z,4.53
2022-08-02T14:52:33.635Z,5.88
2022-08-02T14:55:04.121Z,5.30
2022-08-02T14:57:33.465Z,3.63
2022-08-02T15:00:06.037Z,12.75
2022-08-02T15:02:35.907Z,6.35
2022-08-02T15:05:05.522Z,4.57
2022-08-02T15:07:42.013Z,5.20
2022-08-02T15:10:13.992Z,3.85
2022-08-02T15:12:43.181Z,7.82
2022-08-02T15:15:14.418Z,4.38
2022-08-02T15:17:43.703Z,5.97
2022-08-02T15:20:24.709Z,4.68
2022-08-02T15:22:55.462Z,6.60
2022-08-02T15:25:25.512Z,4.07
2022-08-02T15:27:54.772Z,4.68
2022-08-02T15:30:26.893Z,5.45
2022-08-02T15:32:56.239Z,7.53
2022-08-02T15:35:25.519Z,7.03
2022-08-02T15:37:54.810Z,9.27
2022-08-02T15:40:24.574Z,6.97
2022-08-02T15:42:54.415Z,8.65
2022-08-02T15:45:27.452Z,3.88
2022-08-02T15:47:56.965Z,12.52
2022-08-02T15:50:26.469Z,5.35
2022-08-02T15:52:56.313Z,3.85
2022-08-02T15:55:25.455Z,18.23
2022-08-02T15:57:54.747Z,5.15
2022-08-02T16:00:26.150Z,6.38
2022-08-02T16:02:55.359Z,7.45
2022-08-02T16:05:24.797Z,5.63
2022-08-02T16:07:54.494Z,6.82
2022-08-02T16:10:24.851Z,5.35
2022-08-02T16:13:17.906Z,3.80
2022-08-02T16:15:49.489Z,3.55
2022-08-02T16:18:21.460Z,6.95
2022-08-02T16:20:50.758Z,5.18
2022-08-02T16:23:59.093Z,3.33
2022-08-02T16:26:11.804Z,6.95
2022-08-02T16:28:41.081Z,9.63
2022-08-02T16:31:12.349Z,7.90
2022-08-02T16:33:41.666Z,11.95
2022-08-02T16:36:12.850Z,6.20
2022-08-02T16:38:42.177Z,7.65
2022-08-02T16:41:12.137Z,7.45
2022-08-02T16:43:45.569Z,15.85
2022-08-02T16:46:17.226Z,11.80
2022-08-02T16:48:50.897Z,8.00
2022-08-02T16:51:20.798Z,7.32
2022-08-02T16:53:59.241Z,11.70
2022-08-02T16:56:30.778Z,10.45
2022-08-02T16:59:00.416Z,7.47
2022-08-02T17:02:03.230Z,6.05
2022-08-02T17:04:22.822Z,7.95
2022-08-02T17:06:52.545Z,6.85
2022-08-02T17:10:03.710Z,6.97
2022-08-02T17:12:16.079Z,6.03
2022-08-02T17:17:43.174Z,7.65
2022-08-02T17:20:13.293Z,7.55
2022-08-02T17:22:44.305Z,9.07
2022-08-02T17:25:15.626Z,10.02
2022-08-02T17:27:47.092Z,7.38
2022-08-02T17:30:27.269Z,7.70
2022-08-02T17:32:59.304Z,9.05
2022-08-02T17:35:40.008Z,12.80
2022-08-02T17:38:26.070Z,11.65
2022-08-02T17:40:56.947Z,13.02
2022-08-02T17:43:29.577Z,12.82
2022-08-02T17:46:02.595Z,10.10
2022-08-02T17:49:00.698Z,14.07
2022-08-02T17:52:15.487Z,12.80
2022-08-02T17:54:22.122Z,15.23
2022-08-02T17:59:31.293Z,11.85
2022-08-02T18:02:11.949Z,12.10
2022-08-02T18:04:43.134Z,12.15
2022-08-02T18:07:16.771Z,14.45
2022-08-02T18:09:53.484Z,16.30
2022-08-02T18:12:22.748Z,15.52
2022-08-02T18:14:52.188Z,14.20
2022-08-02T18:17:21.612Z,23.05
2022-08-02T18:19:59.310Z,21.35
2022-08-02T18:22:35.367Z,21.90
2022-08-02T18:25:09.130Z,16.70
2022-08-02T18:27:41.298Z,23.30
2022-08-02T18:30:17.592Z,21.38
2022-08-02T18:33:54.298Z,29.30
2022-08-02T18:35:43.253Z,22.15
2022-08-02T18:38:13.054Z,13.93
2022-08-02T18:40:44.673Z,14.48
2022-08-02T18:43:25.703Z,17.98
2022-08-02T18:46:06.489Z,17.63
2022-08-02T18:48:47.101Z,23.73
2022-08-02T18:51:19.687Z,17.30
2022-08-02T18:56:24.378Z,17.30
2022-08-02T18:58:55.202Z,44.53
2022-08-02T19:01:32.724Z,21.60
2022-08-02T19:04:04.279Z,25.80
2022-08-02T19:06:35.666Z,25.80
2022-08-02T19:11:55.036Z,27.85
2022-08-02T19:14:28.161Z,17.00
2022-08-02T19:16:59.353Z,17.33
2022-08-02T19:19:29.649Z,22.52
2022-08-02T19:24:55.967Z,25.50
2022-08-02T19:27:32.515Z,27.08
2022-08-02T19:30:03.849Z,23.35
2022-08-02T19:32:40.710Z,22.63
2022-08-02T19:35:29.752Z,24.88
2022-08-02T19:38:10.502Z,25.10
2022-08-02T19:40:42.962Z,21.88
2022-08-02T19:44:21.649Z,22.33
2022-08-02T19:46:02.426Z,17.25
2022-08-02T19:48:31.776Z,21.42
2022-08-02T19:51:07.871Z,22.08
2022-08-02T19:53:48.557Z,23.77
2022-08-02T19:56:20.938Z,18.10
2022-08-02T19:59:12.999Z,17.30
2022-08-02T20:01:48.447Z,28.10
2022-08-02T20:04:23.147Z,25.75
2022-08-02T20:06:55.452Z,24.25
2022-08-02T20:09:33.162Z,24.95
2022-08-02T20:12:16.476Z,20.17
2022-08-02T20:14:51.185Z,19.98
2022-08-02T20:17:21.830Z,23.55
2022-08-02T20:19:52.605Z,18.30
2022-08-02T20:22:21.960Z,20.55
2022-08-02T20:24:53.751Z,20.08
2022-08-02T20:27:27.212Z,26.35
2022-08-02T20:29:59.479Z,23.35
2022-08-02T20:32:28.631Z,18.60
2022-08-02T20:34:57.891Z,20.23
2022-08-02T20:38:00.674Z,23.35
2022-08-02T20:40:18.653Z,20.65
2022-08-02T20:45:18.393Z,17.50
2022-08-02T20:47:49.888Z,18.35
2022-08-02T20:50:51.668Z,16.48
2022-08-02T20:53:23.561Z,14.88
2022-08-02T20:55:57.770Z,21.02
2022-08-02T20:58:27.985Z,16.20
2022-08-02T21:00:59.566Z,19.23
2022-08-02T21:03:39.176Z,18.88
2022-08-02T21:06:10.994Z,17.90
2022-08-02T21:08:40.740Z,21.00
2022-08-02T21:11:12.714Z,20.63
2022-08-02T21:13:47.320Z,15.25
2022-08-02T21:16:32.872Z,21.05
2022-08-02T21:19:03.298Z,21.10
2022-08-02T21:21:39.320Z,19.67
2022-08-02T21:24:11.353Z,20.17
2022-08-02T21:26:43.912Z,15.10
2022-08-02T21:29:18.022Z,17.35
2022-08-02T21:31:47.249Z,10.80
2022-08-02T21:34:22.355Z,14.18
2022-08-02T21:36:57.257Z,13.60
2022-08-02T21:39:26.657Z,16.48
2022-08-02T21:41:57.815Z,12.00
2022-08-02T21:44:26.965Z,10.73
2022-08-02T21:46:58.908Z,13.18
2022-08-02T21:50:09.593Z,11.18
2022-08-02T21:52:19.535Z,7.78
2022-08-02T21:54:52.738Z,5.97
2022-08-02T21:57:25.671Z,6.38
2022-08-02T22:00:07.275Z,7.07
2022-08-02T22:02:38.637Z,7.57
2022-08-02T22:05:14.418Z,11.55
2022-08-02T22:07:45.593Z,14.60
2022-08-02T22:10:15.304Z,11.55
2022-08-02T22:12:50.065Z,12.60
2022-08-02T22:15:25.744Z,12.90
2022-08-02T22:18:05.010Z,14.02
2022-08-02T22:20:34.214Z,14.23
2022-08-02T22:23:04.426Z,15.20
2022-08-02T22:25:42.912Z,19.42
2022-08-02T22:28:50.306Z,12.55
2022-08-02T22:31:07.166Z,13.98
2022-08-02T22:34:00.148Z,13.85
2022-08-02T22:36:32.343Z,13.50
2022-08-02T22:39:02.582Z,12.68
2022-08-02T22:42:02.398Z,17.35
2022-08-02T22:44:24.284Z,11.18
2022-08-02T22:46:53.592Z,11.05
2022-08-02T22:49:38.595Z,13.10
2022-08-02T22:52:12.677Z,10.25
2022-08-02T22:54:43.825Z,12.43
2022-08-02T22:57:13.245Z,12.30
2022-08-02T22:58:48.715Z,8.35
2022-08-02T22:58:58.175Z,21.40
2022-08-02T22:59:00.513Z,27.08
2022-08-02T22:59:44.550Z,13.32
2022-08-02T23:02:18.251Z,9.73
2022-08-02T23:04:47.763Z,12.07
2022-08-02T23:07:16.893Z,11.35
2022-08-02T23:09:46.345Z,16.75
2022-08-02T23:12:18.741Z,20.60
2022-08-02T23:14:51.033Z,9.82
2022-08-02T23:17:34.241Z,20.25
2022-08-02T23:20:05.894Z,10.88
2022-08-02T23:22:35.865Z,11.15
2022-08-02T23:25:06.064Z,12.63
2022-08-02T23:27:35.534Z,9.38
2022-08-02T23:30:10.344Z,11.00
2022-08-02T23:32:40.970Z,8.15
2022-08-02T23:35:16.570Z,12.32
2022-08-02T23:38:00.277Z,10.60
2022-08-02T23:40:39.194Z,6.53
2022-08-02T23:43:14.649Z,11.30
2022-08-02T23:45:47.475Z,8.90
2022-08-02T23:48:16.758Z,10.55
2022-08-02T23:50:45.945Z,9.18
2022-08-02T23:53:16.759Z,10.23
2022-08-02T23:55:45.892Z,12.73
2022-08-02T23:58:15.117Z,10.48
